Nearby METAR Reports

 

KISP - Islip, New York, USA
Distance from station: SW 4mi, 6km
Updated: Tue, 01/18/2022 12:56 pm EST
Mostly cloudy
Mostly cloudy
 Wind from WNW
Wind: WNW 26 mph , 43 km/h, Gust: 39 mph , 63 km/h
Temperature: 36°F , 2°C
Wind Chill: 24°F , -4°C
Dew Point: 14°F , -10°C
Humidity: 41%
Barometer: 29.87 inHg , 1011.5 hPa
Clouds: Mostly cloudy
Visibility: 10 miles , 16 km
Cloud details: Mostly cloudy 5000 ft
2022/01/18 17:56 KISP 181756Z 29023G34KT 10SM BKN050 02/M10 A2987 RMK AO2 PK WND 30036/1743 SLP115 BKN V SCT T00171100 10028 21011 53017
KHWV - Shirley, New York, USA
Distance from station: E 10mi, 16km
Updated: Tue, 01/18/2022 12:56 pm EST
Partly cloudy
Partly cloudy
 Wind from WNW
Wind: WNW 20 mph , 31 km/h, Gust: 33 mph , 54 km/h
Temperature: 37°F , 3°C
Wind Chill: 27°F , -3°C
Dew Point: 12°F , -11°C
Humidity: 35%
Barometer: 29.86 inHg , 1011.2 hPa
Clouds: Partly cloudy
Visibility: 10 miles , 16 km
Cloud details: Partly cloudy 5000 ft
2022/01/18 17:56 KHWV 181756Z AUTO 29017G29KT 10SM SCT050 03/M11 A2986 RMK AO2 PK WND 29037/1704 SLP111 T00281106 10028 21006 53013
 
KFRG - Farmingdale, New York, USA
Distance from station: WSW 20mi, 33km
Updated: Tue, 01/18/2022 12:53 pm EST
Overcast
Overcast
 Wind from NW
Wind: NW 12 mph , 19 km/h, Gust: 26 mph , 43 km/h
Temperature: 37°F , 3°C
Wind Chill: 29°F , -2°C
Dew Point: 16°F , -9°C
Humidity: 41%
Barometer: 29.89 inHg , 1012.2 hPa
Clouds: Overcast
Visibility: 10 miles , 16 km
Cloud details: Overcast 5500 ft
2022/01/18 17:53 KFRG 181753Z 32010G23KT 10SM OVC055 03/M09 A2989 RMK AO2 PK WND 33033/1655 SLP121 T00331094 10033 21006 53015
KBDR - Bridgeport, Connecticut, USA
Distance from station: N 23mi, 37km
Updated: Tue, 01/18/2022 12:52 pm EST
Partly cloudy
Partly cloudy
 Wind from WNW
Wind: WNW 21 mph , 33 km/h, Gust: 32 mph , 52 km/h
Temperature: 36°F , 2°C
Wind Chill: 25°F , -4°C
Dew Point: 12°F , -11°C
Humidity: 38%
Barometer: 29.85 inHg , 1010.8 hPa
Clouds: Partly cloudy
Visibility: 10 miles , 16 km
Cloud details: Partly cloudy 6000 ft
2022/01/18 17:52 KBDR 181752Z 29018G28KT 10SM SCT060 02/M11 A2985 RMK AO2 PK WND 31036/1657 SLP106 T00171111 10022 21017 52017
 
KFOK - Westhampton Beac, New York, USA
Distance from station: E 23mi, 37km
Updated: Tue, 01/18/2022 12:53 pm EST
Partly cloudy
Partly cloudy
 Wind from WNW
Wind: WNW 23 mph , 37 km/h, Gust: 36 mph , 57 km/h
Temperature: 37°F , 3°C
Wind Chill: 26°F , -3°C
Dew Point: 12°F , -11°C
Humidity: 35%
Barometer: 29.83 inHg , 1010.2 hPa
Clouds: Partly cloudy
Visibility: 10 miles , 16 km
Cloud details: Partly cloudy 5500 ft
2022/01/18 17:53 KFOK 181753Z 29020G31KT 10SM SCT055 03/M11 A2983 RMK AO2 PK WND 30036/1707 SLP102 T00281111 10033 21011 51005
KHVN - New Haven/Tweed, Connecticut, USA
Distance from station: NNE 31mi, 50km
Updated: Tue, 01/18/2022 12:53 pm EST
Partly cloudy
Partly cloudy
 Wind from WNW
Wind: WNW 12 mph , 19 km/h, Gust: 23 mph , 37 km/h
Temperature: 37°F , 3°C
Wind Chill: 29°F , -2°C
Dew Point: 12°F , -11°C
Humidity: 35%
Barometer: 29.83 inHg , 1010.2 hPa
Clouds: Partly cloudy
Visibility: 10 miles , 16 km
Cloud details: Partly cloudy 7000 ft
2022/01/18 17:53 KHVN 181753Z 29010G20KT 250V310 10SM SCT070 03/M11 A2983 RMK AO2 PK WND 28026/1702 SLP100 T00281106 10033 20000 53013
 
KHPN - White Plains, New York, USA
Distance from station: WNW 37mi, 60km
Updated: Tue, 01/18/2022 12:56 pm EST
Partly cloudy
Partly cloudy
 Wind from WNW
Wind: WNW 28 mph , 44 km/h, Gust: 37 mph , 59 km/h
Temperature: 32°F , 0°C
Wind Chill: 18°F , -8°C
Dew Point: 12°F , -11°C
Humidity: 44%
Barometer: 29.86 inHg , 1011.2 hPa
Clouds: Partly cloudy
Visibility: 10 miles , 16 km
Cloud details: Partly cloudy 5000 ft
2022/01/18 17:56 KHPN 181756Z 30024G32KT 10SM SCT050 00/M11 A2986 RMK AO2 PK WND 31036/1712 SLP120 60000 T00001111 10000 21022 51019
KJFK - Nyc/Jfk Arpt, New York, USA
Distance from station: WSW 40mi, 64km
Updated: Tue, 01/18/2022 12:51 pm EST
Mostly cloudy
Mostly cloudy
 Wind from NW
Wind: NW 21 mph , 33 km/h, Gust: 26 mph , 43 km/h
Temperature: 37°F , 3°C
Wind Chill: 26°F , -3°C
Dew Point: 12°F , -11°C
Humidity: 35%
Barometer: 29.91 inHg , 1012.9 hPa
Clouds: Mostly cloudy
Visibility: 10 miles , 16 km
Cloud details: Mostly cloudy 6000 ft
2022/01/18 17:51 KJFK 181751Z 31018G23KT 10SM BKN060 03/M11 A2991 RMK AO2 PK WND 29032/1652 SLP126 VIRGA NW T00331106 10039 21006 51013
 
KDXR - Danbury, Connecticut, USA
Distance from station: NNW 42mi, 68km
Updated: Tue, 01/18/2022 12:53 pm EST
Partly cloudy
Partly cloudy
 Wind from WNW
Wind: WNW 15 mph , 24 km/h, Gust: 30 mph , 48 km/h
Temperature: 36°F , 2°C
Wind Chill: 27°F , -3°C
Dew Point: 10°F , -12°C
Humidity: 35%
Barometer: 29.84 inHg , 1010.5 hPa
Clouds: Partly cloudy
Visibility: 10 miles , 16 km
Cloud details: Partly cloudy 5000 ft
2022/01/18 17:53 KDXR 181753Z 30013G26KT 10SM SCT050 02/M12 A2984 RMK AO2 PK WND 33027/1716 SLP107 T00171122 10017 21017 51019
KHTO - East Hampton, New York, USA
Distance from station: E 43mi, 69km
Updated: Tue, 01/18/2022 1:15 pm EST
Partly cloudy
Partly cloudy
 Wind from WNW
Wind: WNW 18 mph , 30 km/h, Gust: 28 mph , 44 km/h
Temperature: 36°F , 2°C
Wind Chill: 26°F , -3°C
Dew Point: 9°F , -13°C
Humidity: 32%
Barometer: 29.82 inHg , 1009.8 hPa
Clouds: Partly cloudy
Visibility: 10 miles , 16 km
Cloud details: Partly cloudy 5000 ft
2022/01/18 18:15 KHTO 181815Z AUTO 30016G24KT 10SM SCT050 02/M13 A2982 RMK AO2 T00201126
 
KOXC - Oxford/Waterbury, Connecticut, USA
Distance from station: N 43mi, 70km
Updated: Tue, 01/18/2022 12:51 pm EST
Partly cloudy
Partly cloudy
 Wind from WNW
Wind: WNW 16 mph , 26 km/h, Gust: 29 mph , 46 km/h
Temperature: 30°F , -1°C
Wind Chill: 19°F , -7°C
Dew Point: 12°F , -11°C
Humidity: 47%
Barometer: 29.79 inHg , 1008.8 hPa
Clouds: Partly cloudy
Visibility: 10 miles , 16 km
Cloud details: Partly cloudy 5000 ft
2022/01/18 17:51 KOXC 181751Z 29014G25KT 10SM SCT050 M01/M11 A2979 RMK AO2 PK WND 31030/1659 SLP108 T10061111 11006 21039 51014
KLGA - Nyc/La Guardia, New York, USA
Distance from station: W 44mi, 70km
Updated: Tue, 01/18/2022 12:51 pm EST
Mostly cloudy
Mostly cloudy
 Wind from NNW
Wind: NNW 21 mph , 33 km/h, Gust: 29 mph , 46 km/h
Temperature: 36°F , 2°C
Wind Chill: 25°F , -4°C
Dew Point: 16°F , -9°C
Humidity: 44%
Barometer: 29.90 inHg , 1012.5 hPa
Clouds: Mostly cloudy
Visibility: 10 miles , 16 km
Cloud details: Mostly cloudy 6000 ft
2022/01/18 17:51 KLGA 181751Z 33018G25KT 10SM BKN060 02/M09 A2990 RMK AO2 PK WND 30037/1652 SLP124 VIRGA SW AND NE T00221089 10028 20000 53015
 
KSNC - Chester, Connecticut, USA
Distance from station: NE 47mi, 76km
Updated: Tue, 01/18/2022 1:15 pm EST
Few Clouds
Few Clouds
 Wind from W
Wind: W 15 mph , 24 km/h, Gust: 31 mph , 50 km/h
Temperature: 34°F , 1°C
Wind Chill: 24°F , -4°C
Dew Point: 10°F , -12°C
Humidity: 38%
Barometer: 29.79 inHg , 1008.8 hPa
Clouds: Few Clouds
Visibility: 10 miles , 16 km
Cloud details: Few Clouds 4900 ft
Few Clouds 6000 ft
Few Clouds 12000 ft
2022/01/18 18:15 KSNC 181815Z AUTO 28013G27KT 10SM FEW049 FEW060 FEW120 01/M12 A2979 RMK AO2
KMMK - Meriden, Connecticut, USA
Distance from station: NNE 48mi, 77km
Updated: Tue, 01/18/2022 12:53 pm EST
Light snow, Partly cloudy
Light snow, Partly cloudy
 Wind from NW
Wind: NW 17 mph , 28 km/h, Gust: 30 mph , 48 km/h
Temperature: 34°F , 1°C
Wind Chill: 23°F , -5°C
Dew Point: 10°F , -12°C
Humidity: 38%
Barometer: 29.82 inHg , 1009.8 hPa
Summary: Light Snow
Clouds: Partly cloudy
Visibility: 10 miles , 16 km
Cloud details: Partly cloudy 5000 ft
2022/01/18 17:53 KMMK 181753Z AUTO 31015G26KT 10SM -SN SCT050 01/M12 A2982 RMK AO2 PK WND 30026/1752 SNE12B39 SLP100 P0000 60000 T00061122 10011 21022 51012
 
KNYC - Nyc/Central Park, New York, USA
Distance from station: W 48mi, 77km
Updated: Tue, 01/18/2022 12:51 pm EST
Mostly cloudy
Mostly cloudy
 Wind from varies
Wind: varies 7 mph , 11 km/h, Gust: 26 mph , 43 km/h
Temperature: 36°F , 2°C
Wind Chill: 30°F , -1°C
Dew Point: 16°F , -9°C
Humidity: 44%
Barometer: 29.92 inHg , 1013.2 hPa
Clouds: Mostly cloudy
Visibility: 10 miles , 16 km
Cloud details: Mostly cloudy 6000 ft
2022/01/18 17:51 KNYC 181751Z AUTO VRB06G23KT 10SM BKN060 02/M09 A2992 RMK AO2 PK WND 31028/1735 SLP124 T00221094 10022 21011 51016 $ RTX FIBI